Latest Weather Observations for Moree

IDN60801

Issued at 7:35 pm EST Wednesday 17 September 2014 (issued every 30 minutes, with the page automatically refreshed every 10 minutes)

About weather observations | Map of weather stations | Latest weather observations for NSW | Other Formats
Station Details ID: 053115 Name: MOREE AERO Lat: -29.49 Lon: 149.85 Height: 213.0 m
Data from the previous 72 hours. | See also: Recent months at Moree
Date/Time
EST
Temp
°C
App
Temp
°C
Dew
Point
Rel
Hum
%
Delta-T
°C
Wind Press
QNH
hPa
Press
MSL
hPa
Rain
since 9 am
mm
Dir
 
Spd
km/h
Gust
km/h
Spd
kts
Gust
kts
17/07:30pm 17.4 12.4 -1.1 28 7.9 SSW 15 17 8 9 1016.7 - 0.0
17/07:00pm 18.2 13.6 -0.7 28 8.2 SSW 13 15 7 8 1016.3 - 0.0
17/06:30pm 18.7 13.3 -1.3 26 8.6 SSW 17 24 9 13 1015.8 - 0.0
17/06:00pm 19.3 13.4 -2.1 23 9.1 SW 19 24 10 13 1015.3 1014.9 0.0
17/05:30pm 20.7 14.6 -2.4 21 9.9 WSW 20 26 11 14 1015.1 - 0.0
17/05:00pm 21.2 14.0 -2.2 20 10.1 SW 26 32 14 17 1014.9 - 0.0
17/04:30pm 21.9 15.0 -2.3 19 10.5 SW 24 30 13 16 1014.5 - 0.0
17/04:00pm 22.1 14.8 -2.7 19 10.7 W 26 37 14 20 1014.3 - 0.0
17/03:30pm 21.9 15.0 -2.3 19 10.5 SW 24 37 13 20 1014.0 - 0.0
17/03:00pm 23.0 15.3 -3.3 17 11.3 WSW 28 39 15 21 1014.3 1013.9 0.0
17/02:36pm 22.5 14.8 -2.7 18 10.9 WSW 28 48 15 26 1014.3 - 0.0
17/02:30pm 21.3 14.4 -2.3 20 10.2 WSW 24 39 13 21 1014.4 - 0.0
17/02:15pm 22.9 15.3 -2.2 18 11.0 WSW 28 54 15 29 1014.5 - 0.0
17/02:00pm 22.2 13.9 -2.0 19 10.6 SW 32 39 17 21 1014.5 - 0.0
17/01:47pm 22.1 14.1 -2.3 19 10.6 W 30 48 16 26 1014.7 - 0.0
17/01:30pm 22.2 13.8 -2.5 19 10.7 W 32 43 17 23 1014.9 - 0.0
17/01:00pm 22.1 17.8 -1.8 20 10.5 SW 11 28 6 15 1014.9 - 0.0
17/12:30pm 21.1 15.7 -1.5 22 9.9 W 17 32 9 17 1015.2 - 0.0
17/12:00pm 20.7 16.8 -1.2 23 9.6 WNW 9 15 5 8 1015.5 1015.1 0.0
17/11:30am 20.3 14.4 -0.8 24 9.3 SW 20 35 11 19 1016.1 - 0.0
17/11:00am 19.9 12.4 -1.3 24 9.2 W 28 41 15 22 1016.6 - 0.0
17/10:30am 19.7 13.5 -0.1 26 8.8 SW 22 33 12 18 1016.8 - 0.0
17/10:00am 20.1 14.4 0.3 26 8.9 SSW 20 35 11 19 1016.9 - 0.0
17/09:30am 18.8 12.7 0.7 29 8.1 S 22 28 12 15 1017.2 - 0.0
17/09:00am 18.7 13.2 1.9 32 7.7 S 20 30 11 16 1017.2 1016.9 0.2
17/08:30am 17.6 11.8 2.3 36 7.0 S 22 30 12 16 1017.5 - 0.2
17/08:00am 15.5 12.9 4.2 47 5.3 S 7 13 4 7 1017.2 - 0.2
17/07:30am 12.5 10.9 4.5 58 3.7 S 2 7 1 4 1017.1 - 0.2
17/07:00am 10.2 8.9 3.9 65 2.8 CALM 0 4 0 2 1016.5 - 0.2
17/06:30am 8.1 6.7 3.7 74 1.9 CALM 0 0 0 0 1015.9 - 0.2
17/06:00am 7.9 5.3 3.0 71 2.1 SSW 6 7 3 4 1015.5 1015.1 0.2
17/05:30am 8.1 4.9 3.0 70 2.2 S 9 11 5 6 1015.2 - 0.2
17/05:00am 8.1 4.4 2.2 66 2.5 S 11 13 6 7 1014.9 - 0.2
17/04:30am 8.1 5.1 1.9 65 2.6 SSW 7 9 4 5 1014.7 - 0.2
17/04:00am 8.0 6.3 2.0 66 2.5 CALM 0 0 0 0 1014.5 - 0.2
17/03:30am 8.1 6.4 1.9 65 2.6 CALM 0 0 0 0 1014.2 - 0.2
17/03:00am 9.0 7.3 1.9 61 3.0 CALM 0 0 0 0 1014.1 1013.7 0.2
17/02:30am 9.5 6.5 1.1 56 3.5 SSW 6 7 3 4 1014.0 - 0.2
17/02:00am 9.8 5.5 0.9 54 3.7 SSW 13 15 7 8 1014.2 - 0.2
17/01:30am 10.7 7.1 0.6 49 4.2 S 9 11 5 6 1014.4 - 0.2
17/01:00am 10.1 6.1 0.4 51 4.0 S 11 13 6 7 1014.6 - 0.2
17/12:30am 11.2 6.6 -1.0 42 4.9 SSW 13 15 7 8 1014.7 - 0.2
17/12:00am 11.7 7.6 -0.2 44 4.9 SW 11 15 6 8 1015.1 1014.7 0.2
 
Date/Time
EST
Temp
°C
App
Temp
°C
Dew
Point
Rel
Hum
%
Delta-T
°C
Wind Press
QNH
hPa
Press
MSL
hPa
Rain
since 9 am
mm
Dir
 
Spd
km/h
Gust
km/h
Spd
kts
Gust
kts
16/11:30pm 12.9 8.8 0.0 41 5.4 SW 11 13 6 7 1014.9 - 0.2
16/11:00pm 12.4 8.4 0.2 43 5.1 S 11 17 6 9 1014.9 - 0.2
16/10:30pm 13.3 10.1 1.0 43 5.3 WSW 7 9 4 5 1014.8 - 0.2
16/10:00pm 13.3 10.2 1.3 44 5.2 WSW 7 9 4 5 1014.8 - 0.2
16/09:30pm 13.5 10.3 1.0 42 5.4 SW 7 7 4 4 1014.8 - 0.2
16/09:00pm 14.2 10.1 -0.3 37 6.1 WSW 11 11 6 6 1014.7 1014.3 0.2
16/08:30pm 16.6 12.3 0.7 34 7.0 W 13 15 7 8 1014.5 - 0.2
16/08:00pm 17.5 13.1 0.2 31 7.6 W 13 13 7 7 1014.1 - 0.2
16/07:30pm 17.3 13.3 0.5 32 7.4 W 11 13 6 7 1013.9 - 0.2
16/07:00pm 18.4 13.5 -0.3 28 8.2 WSW 15 17 8 9 1013.5 - 0.2
16/06:30pm 19.3 13.6 -0.5 26 8.7 WSW 19 24 10 13 1013.2 - 0.2
16/06:00pm 21.4 15.3 -2.5 20 10.3 WSW 20 30 11 16 1012.7 1012.3 0.2
16/05:30pm 23.3 15.8 -4.9 15 11.8 W 26 37 14 20 1012.1 - 0.2
16/05:00pm 24.4 16.0 -6.1 13 12.6 WSW 30 37 16 20 1011.8 - 0.2
16/04:30pm 25.3 16.8 -6.8 11 13.2 W 30 37 16 20 1011.4 - 0.2
16/04:00pm 25.6 16.8 -6.4 11 13.3 W 32 57 17 31 1011.2 - 0.2
16/03:30pm 25.8 16.2 -8.2 10 13.7 WNW 35 44 19 24 1011.2 - 0.2
16/03:12pm 25.9 16.9 -8.5 9 13.8 NW 32 35 17 19 1011.1 - 0.2
16/03:00pm 26.1 15.3 -9.9 8 14.1 W 41 54 22 29 1011.1 1010.7 0.0
16/02:42pm 26.1 16.7 -6.6 11 13.6 W 35 43 19 23 1011.0 - 0.0
16/02:30pm 26.4 16.4 -5.0 12 13.5 WNW 39 52 21 28 1011.0 - 0.0
16/02:24pm 26.1 15.3 -5.4 12 13.4 WNW 43 52 23 28 1011.1 - 0.2
16/02:00pm 25.8 18.5 -3.1 14 12.8 W 26 52 14 28 1011.3 - 0.2
16/01:56pm 26.4 18.1 -4.5 13 13.4 WNW 30 52 16 28 1011.3 - 0.0
16/01:30pm 25.7 17.7 0.5 19 11.9 WNW 32 43 17 23 1011.9 - 0.2
16/01:09pm 25.7 18.5 0.9 19 11.8 W 28 46 15 25 1012.1 - 0.2
16/01:00pm 25.6 18.1 1.4 20 11.6 W 30 41 16 22 1012.2 - 0.0
16/12:30pm 25.3 17.8 1.5 21 11.4 W 30 41 16 22 1012.8 - 0.0
16/12:00pm 25.0 18.4 2.0 22 11.1 WNW 26 30 14 16 1013.1 1012.7 0.0
16/11:30am 24.5 18.3 2.4 23 10.7 W 24 33 13 18 1013.4 - 0.0
16/11:00am 23.9 18.8 3.0 25 10.2 W 19 30 10 16 1013.5 - 0.0
16/10:30am 23.5 18.1 2.2 24 10.2 W 20 30 11 16 1013.9 - 0.0
16/10:00am 22.6 17.2 2.2 26 9.7 WNW 20 28 11 15 1014.0 - 0.0
16/09:30am 22.1 16.8 3.0 28 9.2 NNW 20 28 11 15 1014.2 - 0.0
16/09:00am 20.8 15.6 3.6 32 8.3 N 20 28 11 15 1014.1 1013.7 0.0
16/08:30am 19.0 13.6 4.6 38 7.0 N 22 30 12 16 1014.4 - 0.0
16/08:00am 18.0 11.8 4.5 41 6.5 N 26 32 14 17 1014.3 - 0.0
16/07:30am 17.0 12.3 5.3 46 5.7 NE 19 24 10 13 1013.7 - 0.0
16/07:00am 15.2 10.3 5.2 51 4.8 NE 20 28 11 15 1013.3 - 0.0
16/06:30am 14.9 9.4 4.2 48 5.0 NE 22 28 12 15 1013.1 - 0.0
16/06:11am 15.2 10.2 3.8 46 5.3 ENE 19 26 10 14 1013.3 - 0.0
16/06:00am 15.3 11.1 3.9 46 5.3 ENE 15 26 8 14 1013.3 1012.9 0.0
16/05:50am 15.4 10.6 4.4 48 5.2 NNE 19 28 10 15 1013.9 - 0.0
16/05:30am 15.1 8.6 4.5 49 5.0 N 28 33 15 18 1014.0 - 0.0
16/05:00am 15.8 9.0 1.1 37 6.5 NE 26 32 14 17 1012.8 - 0.0
16/04:30am 15.9 11.5 0.5 35 6.7 NE 13 17 7 9 1013.3 - 0.0
16/04:00am 16.2 11.9 1.0 35 6.7 N 13 17 7 9 1013.4 - 0.0
16/03:45am 15.9 7.8 -0.1 33 6.9 W 32 50 17 27 1013.3 - 0.0
16/03:42am 15.5 6.0 -0.5 33 6.8 W 39 50 21 27 1013.9 - 0.0
16/03:41am 15.6 8.3 0.0 34 6.7 NW 28 50 15 27 1013.3 - 0.0
16/03:30am 15.8 10.0 -0.3 33 6.9 NE 20 24 11 13 1012.0 - 0.0
16/03:00am 15.7 10.3 -1.2 31 7.1 NE 17 19 9 10 1012.0 1011.6 0.0
16/02:30am 15.4 9.6 -1.8 30 7.1 NE 19 24 10 13 1011.8 - 0.0
16/02:00am 14.9 9.1 -1.5 32 6.8 NE 19 22 10 12 1012.1 - 0.0
16/01:30am 13.8 8.1 -0.9 36 6.1 NE 19 20 10 11 1012.5 - 0.0
16/01:00am 13.4 8.5 -0.5 38 5.8 NE 15 17 8 9 1012.9 - 0.0
16/12:30am 12.5 8.1 0.1 42 5.2 ENE 13 17 7 9 1013.1 - 0.0
16/12:00am 12.6 7.8 -0.1 41 5.3 ENE 15 17 8 9 1013.3 1012.9 0.0
 
Date/Time
EST
Temp
°C
App
Temp
°C
Dew
Point
Rel
Hum
%
Delta-T
°C
Wind Press
QNH
hPa
Press
MSL
hPa
Rain
since 9 am
mm
Dir
 
Spd
km/h
Gust
km/h
Spd
kts
Gust
kts
15/11:30pm 13.3 9.1 -1.0 37 5.9 ENE 11 13 6 7 1013.4 - 0.0
15/11:00pm 13.6 9.6 -2.0 34 6.3 E 9 13 5 7 1013.6 - 0.0
15/10:30pm 14.0 9.8 -0.6 36 6.1 E 11 13 6 7 1013.5 - 0.0
15/10:00pm 15.0 10.4 -1.4 32 6.8 NE 13 13 7 7 1013.5 - 0.0
15/09:30pm 16.7 12.8 -1.7 28 7.7 NE 9 11 5 6 1013.6 - 0.0
15/09:00pm 16.4 12.8 0.7 34 6.9 NE 9 11 5 6 1013.7 1013.3 0.0
15/08:30pm 17.2 13.3 -1.5 28 7.9 NE 9 11 5 6 1013.7 - 0.0
15/08:00pm 18.1 15.9 -1.7 26 8.4 CALM 0 0 0 0 1013.7 - 0.0
15/07:30pm 20.4 18.1 -2.2 21 9.7 CALM 0 0 0 0 1013.5 - 0.0
15/07:00pm 20.7 18.7 0.0 25 9.3 CALM 0 0 0 0 1013.3 - 0.0
15/06:30pm 22.2 20.0 -1.6 20 10.5 CALM 0 0 0 0 1013.1 - 0.0
15/06:00pm 23.8 21.5 -2.6 17 11.6 CALM 0 0 0 0 1012.9 1012.5 0.0
15/05:30pm 26.6 22.7 -5.1 12 13.6 WSW 7 9 4 5 1012.8 - 0.0
15/05:00pm 27.6 23.0 -8.4 9 14.7 WSW 9 13 5 7 1012.7 - 0.0
15/04:30pm 28.3 25.1 -7.2 9 14.9 WSW 2 11 1 6 1012.5 - 0.0
15/04:00pm 28.1 25.2 -7.9 9 14.9 CALM 0 7 0 4 1012.3 - 0.0
15/03:30pm 28.3 24.1 -7.2 9 14.9 WNW 7 17 4 9 1012.5 - 0.0
15/03:00pm 28.4 24.2 -9.6 7 15.3 S 6 13 3 7 1012.8 1012.4 0.0
15/02:30pm 28.0 23.8 -8.3 9 14.9 NNW 7 26 4 14 1013.1 - 0.0
15/02:00pm 28.2 22.0 -9.0 8 15.1 NW 17 28 9 15 1013.5 - 0.0
15/01:30pm 28.0 23.6 -5.8 10 14.5 WSW 9 28 5 15 1013.9 - 0.0
15/01:00pm 27.2 22.8 -6.1 11 14.1 WSW 9 19 5 10 1014.4 - 0.0
15/12:30pm 27.8 21.7 -7.8 9 14.7 NW 17 20 9 11 1015.0 - 0.0
15/12:00pm 27.7 24.2 -3.0 13 13.8 SW 6 13 3 7 1015.6 1015.2 0.0
15/11:30am 26.0 22.8 2.9 22 11.4 N 9 20 5 11 1016.3 - 0.0
15/11:00am 25.3 22.0 4.5 26 10.5 N 11 19 6 10 1016.8 - 0.0
15/10:30am 24.0 21.0 5.9 31 9.3 N 11 20 6 11 1017.2 - 0.0
15/10:00am 23.6 20.0 6.7 33 8.8 N 15 24 8 13 1017.6 - 0.0
15/09:30am 21.9 18.0 7.0 38 7.7 N 17 22 9 12 1018.0 - 0.0
15/09:00am 20.7 16.0 7.6 42 6.8 N 22 28 12 15 1018.2 1017.8 0.0
15/08:30am 19.7 14.7 8.0 46 6.1 N 24 30 13 16 1018.2 - 0.0
15/08:00am 17.2 12.9 7.8 54 4.8 NNE 20 28 11 15 1018.2 - 0.0
15/07:30am 15.7 11.2 7.1 56 4.3 NE 20 26 11 14 1018.1 - 0.0
15/07:00am 14.5 10.1 6.5 58 3.9 ENE 19 26 10 14 1017.8 - 0.0
15/06:30am 12.6 8.5 6.1 64 3.1 ENE 17 22 9 12 1017.5 - 0.0
15/06:00am 12.7 9.3 5.7 62 3.3 ENE 13 17 7 9 1017.3 1017.0 0.0
15/05:30am 13.5 9.7 6.0 60 3.6 NE 15 17 8 9 1017.1 - 0.0
15/05:00am 14.3 10.5 5.8 56 4.1 NE 15 17 8 9 1017.0 - 0.0
15/04:30am 13.4 9.6 5.6 59 3.7 ENE 15 19 8 10 1016.8 - 0.0
15/04:00am 13.2 9.6 5.1 58 3.8 ENE 13 15 7 8 1016.6 - 0.0
15/03:30am 14.6 12.3 5.9 56 4.2 ENE 7 9 4 5 1016.4 - 0.0
15/03:00am 15.0 12.8 6.4 56 4.2 NE 7 9 4 5 1016.6 1016.3 0.0
15/02:30am 15.1 12.0 5.5 52 4.6 NE 11 11 6 6 1016.6 - 0.0
15/02:00am 15.8 12.8 6.0 52 4.8 ENE 11 15 6 8 1016.7 - 0.0
15/01:30am 16.6 12.6 4.9 46 5.6 ENE 15 17 8 9 1017.0 - 0.0
15/01:00am 16.4 13.9 4.9 46 5.5 ENE 7 11 4 6 1017.5 - 0.0
15/12:30am 16.4 15.2 4.6 45 5.6 CALM 0 7 0 4 1017.6 - 0.0
15/12:00am 16.7 15.5 4.8 45 5.7 CALM 0 0 0 0 1017.8 1017.4 0.0
 
Date/Time
EST
Temp
°C
App
Temp
°C
Dew
Point
Rel
Hum
%
Delta-T
°C
Wind Press
QNH
hPa
Press
MSL
hPa
Rain
since 9 am
mm
Dir
 
Spd
km/h
Gust
km/h
Spd
kts
Gust
kts
14/11:30pm 17.3 15.4 5.1 44 5.9 SW 4 9 2 5 1018.4 - 0.0
14/11:00pm 17.6 16.5 5.3 44 6.0 CALM 0 15 0 8 1018.1 - 0.0
14/10:30pm 18.4 17.3 5.1 41 6.5 CALM 0 0 0 0 1017.8 - 0.0
14/10:00pm 18.3 16.5 5.5 43 6.3 NNE 4 9 2 5 1018.0 - 0.0
14/09:30pm 18.4 17.3 5.1 41 6.5 CALM 0 0 0 0 1018.0 - 0.0
14/09:00pm 19.1 17.9 4.4 38 7.1 CALM 0 0 0 0 1018.0 1017.6 0.0
14/08:30pm 19.9 17.7 5.1 38 7.3 N 6 7 3 4 1017.9 - 0.0
14/08:00pm 20.3 17.7 4.3 35 7.8 NNE 7 9 4 5 1017.7 - 0.0

Other Formats:

Comma delimited format used in spreadsheet applications
http://www.bom.gov.au/fwo/IDN60801/IDN60801.95527.axf

JavaScript Object Notation format (JSON) in row-major order
http://www.bom.gov.au/fwo/IDN60801/IDN60801.95527.json